createdAt,value
2022-10-26T00:00:50.677Z,90.69
2022-10-26T00:03:21.380Z,90.81
2022-10-26T00:05:51.190Z,90.60
2022-10-26T00:08:23.515Z,90.46
2022-10-26T00:10:53.259Z,90.35
2022-10-26T00:13:22.979Z,90.13
2022-10-26T00:15:52.750Z,89.86
2022-10-26T00:18:22.498Z,89.68
2022-10-26T00:20:52.600Z,89.63
2022-10-26T00:23:24.962Z,89.50
2022-10-26T00:25:58.470Z,89.23
2022-10-26T00:28:28.432Z,89.80
2022-10-26T00:31:03.030Z,89.46
2022-10-26T00:33:33.300Z,89.63
2022-10-26T00:36:03.118Z,89.36
2022-10-26T00:38:35.501Z,89.48
2022-10-26T00:41:05.271Z,89.43
2022-10-26T00:43:40.227Z,89.29
2022-10-26T00:46:16.251Z,89.60
2022-10-26T00:48:50.091Z,90.09
2022-10-26T00:51:26.615Z,89.29
2022-10-26T00:53:59.397Z,90.33
2022-10-26T00:56:30.120Z,91.84
2022-10-26T00:59:03.641Z,92.06
2022-10-26T01:01:36.324Z,92.53
2022-10-26T01:04:06.411Z,92.18
2022-10-26T01:06:39.324Z,93.24
2022-10-26T01:09:12.918Z,93.50
2022-10-26T01:11:42.646Z,92.90
2022-10-26T01:14:13.815Z,92.43
2022-10-26T01:17:00.189Z,91.40
2022-10-26T01:20:00.463Z,89.65
2022-10-26T01:22:35.388Z,90.53
2022-10-26T01:25:27.528Z,89.72
2022-10-26T01:27:57.610Z,90.11
2022-10-26T01:30:38.084Z,90.09
2022-10-26T01:33:18.733Z,90.42
2022-10-26T01:35:56.212Z,89.94
2022-10-26T01:38:33.632Z,90.24
2022-10-26T01:41:11.263Z,91.38
2022-10-26T01:43:45.395Z,91.59
2022-10-26T01:46:20.904Z,92.51
2022-10-26T01:48:52.919Z,92.30
2022-10-26T01:51:23.768Z,93.89
2022-10-26T01:53:53.632Z,93.25
2022-10-26T01:56:26.200Z,93.76
2022-10-26T01:59:22.179Z,92.93
2022-10-26T02:02:21.743Z,94.52
2022-10-26T02:05:13.249Z,93.66
2022-10-26T02:07:52.442Z,93.56
2022-10-26T02:10:33.521Z,92.65
2022-10-26T02:13:09.783Z,92.57
2022-10-26T02:15:48.931Z,91.81
2022-10-26T02:18:29.910Z,91.42
2022-10-26T02:21:15.413Z,91.42
2022-10-26T02:23:48.194Z,92.70
2022-10-26T02:26:22.402Z,92.47
2022-10-26T02:28:56.703Z,93.11
2022-10-26T02:31:28.843Z,94.12
2022-10-26T02:34:03.116Z,93.91
2022-10-26T02:36:39.230Z,92.99
2022-10-26T02:39:12.135Z,93.95
2022-10-26T02:41:43.624Z,94.26
2022-10-26T02:44:19.907Z,93.59
2022-10-26T02:46:49.864Z,93.33
2022-10-26T02:49:19.971Z,93.06
2022-10-26T02:51:56.107Z,92.24
2022-10-26T02:54:33.827Z,91.96
2022-10-26T02:57:06.420Z,92.76
2022-10-26T02:59:40.188Z,93.10
2022-10-26T03:02:09.986Z,92.86
2022-10-26T03:04:39.787Z,92.34
2022-10-26T03:07:12.302Z,93.98
2022-10-26T03:09:42.111Z,94.00
2022-10-26T03:12:11.866Z,94.63
2022-10-26T03:14:41.663Z,93.90
2022-10-26T03:17:11.455Z,93.98
2022-10-26T03:19:41.193Z,93.66
2022-10-26T03:22:13.537Z,93.50
2022-10-26T03:24:43.251Z,94.15
2022-10-26T03:27:12.963Z,93.87
2022-10-26T03:29:42.868Z,95.02
2022-10-26T03:32:12.916Z,94.97
2022-10-26T03:34:42.702Z,95.32
2022-10-26T03:37:15.055Z,94.41
2022-10-26T03:39:44.851Z,94.31
2022-10-26T03:42:14.682Z,93.25
2022-10-26T03:44:44.424Z,92.92
2022-10-26T03:47:14.115Z,92.97
2022-10-26T03:49:43.844Z,92.80
2022-10-26T03:52:16.168Z,92.33
2022-10-26T03:54:45.911Z,92.95
2022-10-26T03:57:15.636Z,92.43
2022-10-26T03:59:45.375Z,92.30
2022-10-26T04:02:15.323Z,92.30
2022-10-26T04:04:45.036Z,92.42
2022-10-26T04:07:17.352Z,91.98
2022-10-26T04:09:47.098Z,92.00
2022-10-26T04:12:16.823Z,91.94
2022-10-26T04:14:46.670Z,93.36
2022-10-26T04:17:16.397Z,93.70
2022-10-26T04:19:46.136Z,94.07
2022-10-26T04:22:18.419Z,95.41
2022-10-26T04:24:49.376Z,95.27
2022-10-26T04:27:19.102Z,94.53
2022-10-26T04:29:48.845Z,94.63
2022-10-26T04:32:18.568Z,94.79
2022-10-26T04:34:48.310Z,95.53
2022-10-26T04:37:20.614Z,95.99
2022-10-26T04:39:50.367Z,96.26
2022-10-26T04:42:20.109Z,96.72
2022-10-26T04:44:49.834Z,96.72
2022-10-26T04:47:19.584Z,95.72
2022-10-26T04:49:49.410Z,96.24
2022-10-26T04:52:21.716Z,96.25
2022-10-26T04:54:51.464Z,97.35
2022-10-26T04:57:21.183Z,96.49
2022-10-26T04:59:50.922Z,96.33
2022-10-26T05:02:21.258Z,95.99
2022-10-26T05:04:51.469Z,95.65
2022-10-26T05:07:25.042Z,94.88
2022-10-26T05:09:55.879Z,94.53
2022-10-26T05:12:26.188Z,94.43
2022-10-26T05:14:59.020Z,94.64
2022-10-26T05:17:29.836Z,94.36
2022-10-26T05:20:00.595Z,94.61
2022-10-26T05:22:33.362Z,94.45
2022-10-26T05:25:03.165Z,94.09
2022-10-26T05:27:32.967Z,93.66
2022-10-26T05:30:02.869Z,94.12
2022-10-26T05:32:33.757Z,94.38
2022-10-26T05:35:03.584Z,94.25
2022-10-26T05:37:36.967Z,94.57
2022-10-26T05:40:09.315Z,94.36
2022-10-26T05:42:40.150Z,94.30
2022-10-26T05:45:11.865Z,94.36
2022-10-26T05:47:43.336Z,95.35
2022-10-26T05:50:14.275Z,96.03
2022-10-26T05:52:49.389Z,95.73
2022-10-26T05:55:20.632Z,95.89
2022-10-26T05:57:52.393Z,95.73
2022-10-26T06:00:25.026Z,95.37
2022-10-26T06:03:15.578Z,95.04
2022-10-26T06:05:55.285Z,96.04
2022-10-26T06:08:31.132Z,96.73
2022-10-26T06:11:03.723Z,96.81
2022-10-26T06:13:34.298Z,97.29
2022-10-26T06:16:22.227Z,96.03
2022-10-26T06:19:06.340Z,95.89
2022-10-26T06:21:54.702Z,95.81
2022-10-26T06:24:39.404Z,95.44
2022-10-26T06:27:19.668Z,95.18
2022-10-26T06:29:59.825Z,94.48
2022-10-26T06:32:29.955Z,94.65
2022-10-26T06:35:12.405Z,94.74
2022-10-26T06:37:45.385Z,95.26
2022-10-26T06:40:20.054Z,96.14
2022-10-26T06:42:50.502Z,96.65
2022-10-26T06:45:21.462Z,96.58
2022-10-26T06:47:59.279Z,96.56
2022-10-26T06:50:35.706Z,96.31
2022-10-26T06:53:15.492Z,96.87
2022-10-26T06:55:51.115Z,96.89
2022-10-26T06:58:25.222Z,97.25
2022-10-26T07:00:57.238Z,97.80
2022-10-26T07:03:27.192Z,98.21
2022-10-26T07:05:58.082Z,98.49
2022-10-26T07:08:28.840Z,98.29
2022-10-26T07:11:02.191Z,98.66
2022-10-26T07:13:31.975Z,99.81
2022-10-26T07:16:01.801Z,99.33
2022-10-26T07:18:31.584Z,99.96
2022-10-26T07:21:02.582Z,99.74
2022-10-26T07:23:33.392Z,100.00
2022-10-26T07:26:06.872Z,100.00
2022-10-26T07:28:38.026Z,100.00
2022-10-26T07:31:08.943Z,100.00
2022-10-26T07:33:41.553Z,100.00
2022-10-26T07:36:13.324Z,100.00
2022-10-26T07:38:43.144Z,100.00
2022-10-26T07:41:17.546Z,100.00
2022-10-26T07:43:50.787Z,100.00
2022-10-26T07:46:22.623Z,100.00
2022-10-26T07:48:52.516Z,100.00
2022-10-26T07:51:24.462Z,100.00
2022-10-26T07:53:54.321Z,100.00
2022-10-26T07:56:28.818Z,100.00
2022-10-26T07:59:01.282Z,100.00
2022-10-26T08:01:32.531Z,100.00
2022-10-26T08:04:03.411Z,100.00
2022-10-26T08:06:35.013Z,100.00
2022-10-26T08:09:07.055Z,100.00
2022-10-26T08:11:40.625Z,100.00
2022-10-26T08:14:12.984Z,100.00
2022-10-26T08:16:44.722Z,100.00
2022-10-26T08:19:16.188Z,100.00
2022-10-26T08:21:47.187Z,100.00
2022-10-26T08:24:18.149Z,100.00
2022-10-26T08:26:51.521Z,100.00
2022-10-26T08:29:22.368Z,100.00
2022-10-26T08:31:54.423Z,100.00
2022-10-26T08:34:25.609Z,100.00
2022-10-26T08:36:55.427Z,100.00
2022-10-26T08:39:28.543Z,100.00
2022-10-26T08:42:08.286Z,100.00
2022-10-26T08:44:42.647Z,100.00
2022-10-26T08:47:20.718Z,100.00
2022-10-26T08:49:57.789Z,100.00
2022-10-26T08:52:35.646Z,100.00
2022-10-26T08:55:13.664Z,100.00
2022-10-26T08:57:48.154Z,100.00
2022-10-26T09:00:21.887Z,100.00
2022-10-26T09:02:53.730Z,100.00
2022-10-26T09:05:30.434Z,99.80
2022-10-26T09:08:12.555Z,99.48
2022-10-26T09:10:51.903Z,99.19
2022-10-26T09:13:31.051Z,98.71
2022-10-26T09:16:09.617Z,98.35
2022-10-26T09:18:49.665Z,98.75
2022-10-26T09:21:34.635Z,99.58
2022-10-26T09:24:11.044Z,99.58
2022-10-26T09:26:46.791Z,99.26
2022-10-26T09:29:21.533Z,99.02
2022-10-26T09:31:53.467Z,98.91
2022-10-26T09:34:31.898Z,98.21
2022-10-26T09:37:01.667Z,97.93
2022-10-26T09:39:41.976Z,97.52
2022-10-26T09:42:20.177Z,98.03
2022-10-26T09:44:57.700Z,97.91
2022-10-26T09:47:36.416Z,97.92
2022-10-26T09:50:19.302Z,98.15
2022-10-26T09:52:50.582Z,98.04
2022-10-26T09:55:22.991Z,97.48
2022-10-26T09:57:56.319Z,96.24
2022-10-26T10:00:30.745Z,96.08
2022-10-26T10:03:01.344Z,96.12
2022-10-26T10:08:26.474Z,94.85
2022-10-26T10:11:03.063Z,94.80
2022-10-26T10:13:34.365Z,94.58
2022-10-26T10:16:15.399Z,92.87
2022-10-26T10:18:45.398Z,92.40
2022-10-26T10:21:16.326Z,91.50
2022-10-26T10:23:54.709Z,91.30
2022-10-26T10:26:24.596Z,91.25
2022-10-26T10:29:03.857Z,90.93
2022-10-26T10:31:36.914Z,90.81
2022-10-26T10:34:19.113Z,90.35
2022-10-26T10:36:49.915Z,90.03
2022-10-26T10:39:41.396Z,89.07
2022-10-26T10:42:21.296Z,88.70
2022-10-26T10:44:55.624Z,88.66
2022-10-26T10:47:31.754Z,88.88
2022-10-26T10:50:04.977Z,88.65
2022-10-26T10:52:36.648Z,89.18
2022-10-26T10:55:19.639Z,87.84
2022-10-26T10:58:05.810Z,87.81
2022-10-26T11:00:39.521Z,88.47
2022-10-26T11:03:27.303Z,88.62
2022-10-26T11:06:19.090Z,89.04
2022-10-26T11:08:53.214Z,89.81
2022-10-26T11:11:27.361Z,88.32
2022-10-26T11:14:04.311Z,86.90
2022-10-26T11:16:38.903Z,86.35
2022-10-26T11:19:22.726Z,83.61
2022-10-26T11:21:56.010Z,84.74
2022-10-26T11:24:29.894Z,84.90
2022-10-26T11:27:03.902Z,85.08
2022-10-26T11:29:43.479Z,85.11
2022-10-26T11:32:20.595Z,84.39
2022-10-26T11:34:58.727Z,84.00
2022-10-26T11:37:37.629Z,82.20
2022-10-26T11:40:22.233Z,81.98
2022-10-26T11:42:57.648Z,82.90
2022-10-26T11:45:31.568Z,81.82
2022-10-26T11:48:09.525Z,82.90
2022-10-26T11:50:46.026Z,83.18
2022-10-26T11:53:20.517Z,82.36
2022-10-26T11:55:55.067Z,82.10
2022-10-26T11:58:27.456Z,82.16
2022-10-26T12:01:03.692Z,81.61
2022-10-26T12:03:40.403Z,82.18
2022-10-26T12:06:14.603Z,81.52
2022-10-26T12:08:50.334Z,81.69
2022-10-26T12:11:34.894Z,81.88
2022-10-26T12:14:16.198Z,80.75
2022-10-26T12:16:57.240Z,80.92
2022-10-26T12:19:32.036Z,80.38
2022-10-26T12:22:06.220Z,80.76
2022-10-26T12:24:38.873Z,80.25
2022-10-26T12:27:09.324Z,79.48
2022-10-26T12:29:42.839Z,78.15
2022-10-26T12:32:52.805Z,79.40
2022-10-26T12:35:43.173Z,79.18
2022-10-26T12:38:50.329Z,78.13
2022-10-26T12:41:26.456Z,78.02
2022-10-26T12:44:02.756Z,78.35
2022-10-26T12:46:45.572Z,77.67
2022-10-26T12:50:00.526Z,77.45
2022-10-26T12:52:46.596Z,78.14
2022-10-26T12:55:49.167Z,78.30
2022-10-26T12:58:48.450Z,79.23
2022-10-26T13:04:52.790Z,78.83
2022-10-26T13:07:25.270Z,79.03
2022-10-26T13:10:01.171Z,79.84
2022-10-26T13:12:38.700Z,78.90
2022-10-26T13:15:24.238Z,79.08
2022-10-26T13:18:01.549Z,78.92
2022-10-26T13:20:33.392Z,79.23
2022-10-26T13:23:04.091Z,78.67
2022-10-26T13:25:34.868Z,78.44
2022-10-26T13:28:08.670Z,78.93
2022-10-26T13:30:51.155Z,78.23
2022-10-26T13:33:25.556Z,79.21
2022-10-26T13:36:00.668Z,79.54
2022-10-26T13:38:36.419Z,80.13
2022-10-26T13:41:18.158Z,79.67
2022-10-26T13:43:49.723Z,79.90
2022-10-26T13:46:32.459Z,78.53
2022-10-26T13:49:16.745Z,79.78
2022-10-26T13:51:49.697Z,80.16
2022-10-26T13:54:26.396Z,79.06
2022-10-26T13:57:15.776Z,79.35
2022-10-26T13:59:48.128Z,79.68
2022-10-26T14:02:25.405Z,79.26
2022-10-26T14:04:56.826Z,79.79
2022-10-26T14:07:34.793Z,79.88
2022-10-26T14:10:04.860Z,81.24
2022-10-26T14:12:35.714Z,81.45
2022-10-26T14:15:09.323Z,82.04
2022-10-26T14:17:42.905Z,81.72
2022-10-26T14:20:21.361Z,81.94
2022-10-26T14:22:52.135Z,82.11
2022-10-26T14:25:35.803Z,81.97
2022-10-26T14:28:24.931Z,81.73
2022-10-26T14:30:55.037Z,82.42
2022-10-26T14:33:31.715Z,81.28
2022-10-26T14:36:02.533Z,81.74
2022-10-26T14:38:41.627Z,82.12
2022-10-26T14:41:11.789Z,81.59
2022-10-26T14:43:42.040Z,82.43
2022-10-26T14:46:18.351Z,82.12
2022-10-26T14:49:02.463Z,81.17
2022-10-26T14:51:37.155Z,81.67
2022-10-26T14:54:07.548Z,82.13
2022-10-26T14:56:43.460Z,82.19
2022-10-26T14:59:14.640Z,83.06
2022-10-26T15:01:53.454Z,82.63
2022-10-26T15:04:34.499Z,82.48
2022-10-26T15:07:10.555Z,83.38
2022-10-26T15:09:46.233Z,83.39
2022-10-26T15:12:34.296Z,83.61
2022-10-26T15:15:23.515Z,83.20
2022-10-26T15:17:56.233Z,84.15
2022-10-26T15:20:30.678Z,83.97
2022-10-26T15:23:02.869Z,84.73
2022-10-26T15:25:35.865Z,84.36
2022-10-26T15:28:12.928Z,84.91
2022-10-26T15:31:01.350Z,84.88
2022-10-26T15:33:32.039Z,85.33
2022-10-26T15:36:21.366Z,85.02
2022-10-26T15:38:51.793Z,86.02
2022-10-26T15:41:24.746Z,85.68
2022-10-26T15:43:56.714Z,86.18
2022-10-26T15:46:27.461Z,85.93
2022-10-26T15:49:00.246Z,85.91
2022-10-26T15:51:33.742Z,86.94
2022-10-26T15:54:07.024Z,87.00
2022-10-26T15:56:36.861Z,87.14
2022-10-26T15:59:06.628Z,87.63
2022-10-26T16:01:36.736Z,87.78
2022-10-26T16:04:07.007Z,87.36
2022-10-26T16:06:42.963Z,87.28
2022-10-26T16:09:17.839Z,86.85
2022-10-26T16:11:48.660Z,87.16
2022-10-26T16:14:19.435Z,86.87
2022-10-26T16:16:49.173Z,87.10
2022-10-26T16:19:30.291Z,87.13
2022-10-26T16:22:04.024Z,87.86
2022-10-26T16:24:34.740Z,88.23
2022-10-26T16:27:04.707Z,88.88
2022-10-26T16:29:34.512Z,89.51
2022-10-26T16:32:04.410Z,89.78
2022-10-26T16:34:34.216Z,90.32
2022-10-26T16:37:07.538Z,90.41
2022-10-26T16:39:37.447Z,91.01
2022-10-26T16:42:07.641Z,91.35
2022-10-26T16:44:38.024Z,91.68
2022-10-26T16:47:07.906Z,91.53
2022-10-26T16:49:38.651Z,91.14
2022-10-26T16:52:11.083Z,90.80
2022-10-26T16:54:40.908Z,90.57
2022-10-26T16:57:11.726Z,90.97
2022-10-26T16:59:41.458Z,91.17
2022-10-26T17:02:13.282Z,91.13
2022-10-26T17:04:46.222Z,91.94
2022-10-26T17:07:18.668Z,91.43
2022-10-26T17:09:48.522Z,91.92
2022-10-26T17:12:18.399Z,91.54
2022-10-26T17:14:49.268Z,91.38
2022-10-26T17:17:20.131Z,91.39
2022-10-26T17:19:50.960Z,91.63
2022-10-26T17:22:24.408Z,91.44
2022-10-26T17:24:55.240Z,91.47
2022-10-26T17:27:26.767Z,91.18
2022-10-26T17:29:58.625Z,91.30
2022-10-26T17:32:28.412Z,91.06
2022-10-26T17:34:58.223Z,91.51
2022-10-26T17:37:30.712Z,91.88
2022-10-26T17:40:01.530Z,92.49
2022-10-26T17:42:32.363Z,92.34
2022-10-26T17:45:02.202Z,92.25
2022-10-26T17:47:32.059Z,92.95
2022-10-26T17:50:03.464Z,93.13
2022-10-26T17:52:36.903Z,92.88
2022-10-26T17:55:08.399Z,93.02
2022-10-26T17:57:39.442Z,92.29
2022-10-26T18:00:10.932Z,92.67
2022-10-26T18:02:43.345Z,92.71
2022-10-26T18:05:13.934Z,93.00
2022-10-26T18:07:47.614Z,93.47
2022-10-26T18:10:37.140Z,93.48
2022-10-26T18:13:07.837Z,93.51
2022-10-26T18:15:38.436Z,93.78
2022-10-26T18:18:09.529Z,94.18
2022-10-26T18:20:39.689Z,94.46
2022-10-26T18:23:12.119Z,93.80
2022-10-26T18:25:42.922Z,93.92
2022-10-26T18:28:12.768Z,94.46
2022-10-26T18:30:43.854Z,94.71
2022-10-26T18:33:14.252Z,95.34
2022-10-26T18:35:46.295Z,95.62
2022-10-26T18:38:19.995Z,95.74
2022-10-26T18:40:54.707Z,96.15
2022-10-26T18:43:25.177Z,96.10
2022-10-26T18:46:04.731Z,97.02
2022-10-26T18:48:36.027Z,97.06
2022-10-26T18:51:06.186Z,96.79
2022-10-26T18:53:43.733Z,96.76
2022-10-26T18:56:16.093Z,96.85
2022-10-26T18:58:48.718Z,97.29
2022-10-26T19:01:22.590Z,97.59
2022-10-26T19:03:56.627Z,97.02
2022-10-26T19:06:29.505Z,96.74
2022-10-26T19:09:02.879Z,96.37
2022-10-26T19:11:34.538Z,96.14
2022-10-26T19:14:05.356Z,95.90
2022-10-26T19:16:51.614Z,95.72
2022-10-26T19:19:25.342Z,96.34
2022-10-26T19:21:55.373Z,96.30
2022-10-26T19:24:31.084Z,96.37
2022-10-26T19:27:02.491Z,96.31
2022-10-26T19:29:33.536Z,96.18
2022-10-26T19:32:03.378Z,96.35
2022-10-26T19:34:34.502Z,96.34
2022-10-26T19:37:05.682Z,96.10
2022-10-26T19:39:40.274Z,95.75
2022-10-26T19:42:10.406Z,94.88
2022-10-26T19:44:41.426Z,94.81
2022-10-26T19:47:11.239Z,94.46
2022-10-26T19:49:42.319Z,94.38
2022-10-26T19:52:13.490Z,94.37
2022-10-26T19:54:45.838Z,93.95
2022-10-26T19:57:16.960Z,94.18
2022-10-26T19:59:47.040Z,94.47
2022-10-26T20:02:18.843Z,94.64
2022-10-26T20:04:48.637Z,95.08
2022-10-26T20:07:19.043Z,94.49
2022-10-26T20:09:53.714Z,94.47
2022-10-26T20:12:23.911Z,94.64
2022-10-26T20:14:54.952Z,94.86
2022-10-26T20:17:29.564Z,95.06
2022-10-26T20:19:59.436Z,95.85
2022-10-26T20:22:30.235Z,96.14
2022-10-26T20:25:02.650Z,96.48
2022-10-26T20:27:33.778Z,96.61
2022-10-26T20:30:04.574Z,96.11
2022-10-26T20:32:34.316Z,96.18
2022-10-26T20:35:04.007Z,96.05
2022-10-26T20:37:34.515Z,96.32
2022-10-26T20:40:08.535Z,96.30
2022-10-26T20:42:39.424Z,97.64
2022-10-26T20:45:13.328Z,98.06
2022-10-26T20:47:44.105Z,99.45
2022-10-26T20:50:15.907Z,100.00
2022-10-26T20:52:51.885Z,100.00
2022-10-26T20:55:31.928Z,100.00
2022-10-26T20:58:06.112Z,100.00
2022-10-26T21:00:43.908Z,100.00
2022-10-26T21:03:15.058Z,100.00
2022-10-26T21:05:48.815Z,100.00
2022-10-26T21:08:18.572Z,100.00
2022-10-26T21:10:52.110Z,100.00
2022-10-26T21:13:22.136Z,100.00
2022-10-26T21:15:51.848Z,100.00
2022-10-26T21:18:21.606Z,100.00
2022-10-26T21:20:51.468Z,100.00
2022-10-26T21:23:21.240Z,100.00
2022-10-26T21:25:57.184Z,99.47
2022-10-26T21:28:26.979Z,99.83
2022-10-26T21:30:56.703Z,99.50
2022-10-26T21:33:31.986Z,99.15
2022-10-26T21:36:01.759Z,99.12
2022-10-26T21:38:33.133Z,98.98
2022-10-26T21:41:10.060Z,98.79
2022-10-26T21:43:41.389Z,99.59
2022-10-26T21:46:12.757Z,99.61
2022-10-26T21:48:42.702Z,99.85
2022-10-26T21:51:16.120Z,99.84
2022-10-26T21:53:46.434Z,99.68
2022-10-26T21:56:20.883Z,99.33
2022-10-26T21:58:51.126Z,99.20
2022-10-26T22:01:22.701Z,99.29
2022-10-26T22:03:52.705Z,99.85
2022-10-26T22:06:24.292Z,100.00
2022-10-26T22:08:54.075Z,100.00
2022-10-26T22:11:27.476Z,100.00
2022-10-26T22:13:57.617Z,100.00
2022-10-26T22:16:28.988Z,100.00
2022-10-26T22:19:01.594Z,100.00
2022-10-26T22:21:34.930Z,100.00
2022-10-26T22:24:04.847Z,100.00
2022-10-26T22:26:39.479Z,99.84
2022-10-26T22:29:09.257Z,99.89
2022-10-26T22:31:42.140Z,99.06
2022-10-26T22:34:18.771Z,98.75
2022-10-26T22:36:48.497Z,98.68
2022-10-26T22:39:18.330Z,98.10
2022-10-26T22:41:50.860Z,98.05
2022-10-26T22:44:20.543Z,97.78
2022-10-26T22:46:50.271Z,97.49
2022-10-26T22:49:19.964Z,97.75
2022-10-26T22:51:49.743Z,97.68
2022-10-26T22:54:19.835Z,97.70
2022-10-26T22:56:52.142Z,97.64
2022-10-26T22:59:21.953Z,97.58
2022-10-26T23:01:51.790Z,97.19
2022-10-26T23:04:21.606Z,97.64
2022-10-26T23:06:51.318Z,98.30
2022-10-26T23:09:21.343Z,98.34
2022-10-26T23:11:53.674Z,97.87
2022-10-26T23:14:23.378Z,97.73
2022-10-26T23:16:53.155Z,97.41
2022-10-26T23:19:22.883Z,96.90
2022-10-26T23:21:52.631Z,96.76
2022-10-26T23:24:22.341Z,96.70
2022-10-26T23:26:54.678Z,96.45
2022-10-26T23:29:24.424Z,96.40
2022-10-26T23:31:54.184Z,96.70
2022-10-26T23:34:23.915Z,97.07
2022-10-26T23:36:53.644Z,96.86
2022-10-26T23:39:23.354Z,96.99
2022-10-26T23:41:55.682Z,96.95
2022-10-26T23:44:25.410Z,97.53
2022-10-26T23:46:55.168Z,97.66
2022-10-26T23:49:24.887Z,97.48
2022-10-26T23:51:54.652Z,97.55
2022-10-26T23:54:24.390Z,97.52
2022-10-26T23:56:56.678Z,97.88
2022-10-26T23:59:26.953Z,97.70
